sensor_id;sensor_type;location;lat;lon;timestamp;P1;durP1;ratioP1;P2;durP2;ratioP2
49502;SDS011;35409;48.776;9.204;2024-01-16T00:00:46;9.60;;;3.88;;
49502;SDS011;35409;48.776;9.204;2024-01-16T00:03:12;11.52;;;3.97;;
49502;SDS011;35409;48.776;9.204;2024-01-16T00:05:38;12.02;;;4.35;;
49502;SDS011;35409;48.776;9.204;2024-01-16T00:08:03;7.32;;;3.70;;
49502;SDS011;35409;48.776;9.204;2024-01-16T00:10:29;7.85;;;3.83;;
49502;SDS011;35409;48.776;9.204;2024-01-16T00:12:55;8.25;;;3.60;;
49502;SDS011;35409;48.776;9.204;2024-01-16T00:15:20;12.20;;;4.28;;
49502;SDS011;35409;48.776;9.204;2024-01-16T00:17:46;6.45;;;3.17;;
49502;SDS011;35409;48.776;9.204;2024-01-16T00:20:14;8.27;;;3.33;;
49502;SDS011;35409;48.776;9.204;2024-01-16T00:22:39;8.23;;;4.00;;
49502;SDS011;35409;48.776;9.204;2024-01-16T00:25:06;7.35;;;3.63;;
49502;SDS011;35409;48.776;9.204;2024-01-16T00:27:33;6.47;;;3.78;;
49502;SDS011;35409;48.776;9.204;2024-01-16T00:29:59;7.15;;;3.83;;
49502;SDS011;35409;48.776;9.204;2024-01-16T00:32:25;9.73;;;4.10;;
49502;SDS011;35409;48.776;9.204;2024-01-16T00:34:51;8.30;;;3.60;;
49502;SDS011;35409;48.776;9.204;2024-01-16T00:37:17;8.82;;;4.25;;
49502;SDS011;35409;48.776;9.204;2024-01-16T00:39:43;9.95;;;4.70;;
49502;SDS011;35409;48.776;9.204;2024-01-16T00:42:08;8.90;;;3.70;;
49502;SDS011;35409;48.776;9.204;2024-01-16T00:44:34;7.63;;;3.90;;
49502;SDS011;35409;48.776;9.204;2024-01-16T00:47:00;10.98;;;4.20;;
49502;SDS011;35409;48.776;9.204;2024-01-16T00:49:27;7.10;;;3.53;;
49502;SDS011;35409;48.776;9.204;2024-01-16T00:51:54;9.18;;;4.22;;
49502;SDS011;35409;48.776;9.204;2024-01-16T00:54:19;9.43;;;3.67;;
49502;SDS011;35409;48.776;9.204;2024-01-16T00:56:46;8.70;;;3.50;;
49502;SDS011;35409;48.776;9.204;2024-01-16T00:59:12;9.82;;;4.35;;
49502;SDS011;35409;48.776;9.204;2024-01-16T01:01:38;8.27;;;3.60;;
49502;SDS011;35409;48.776;9.204;2024-01-16T01:04:03;9.05;;;3.63;;
49502;SDS011;35409;48.776;9.204;2024-01-16T01:06:29;10.38;;;4.53;;
49502;SDS011;35409;48.776;9.204;2024-01-16T01:08:55;10.20;;;4.07;;
49502;SDS011;35409;48.776;9.204;2024-01-16T01:11:21;8.50;;;4.18;;
49502;SDS011;35409;48.776;9.204;2024-01-16T01:13:48;8.73;;;4.05;;
49502;SDS011;35409;48.776;9.204;2024-01-16T01:16:13;7.35;;;3.75;;
49502;SDS011;35409;48.776;9.204;2024-01-16T01:18:39;5.63;;;3.60;;
49502;SDS011;35409;48.776;9.204;2024-01-16T01:21:05;9.57;;;3.80;;
49502;SDS011;35409;48.776;9.204;2024-01-16T01:23:32;8.50;;;4.07;;
49502;SDS011;35409;48.776;9.204;2024-01-16T01:25:58;7.75;;;3.83;;
49502;SDS011;35409;48.776;9.204;2024-01-16T01:28:23;9.60;;;4.07;;
49502;SDS011;35409;48.776;9.204;2024-01-16T01:30:50;7.93;;;4.50;;
49502;SDS011;35409;48.776;9.204;2024-01-16T01:33:16;10.23;;;3.83;;
49502;SDS011;35409;48.776;9.204;2024-01-16T01:35:43;8.75;;;3.65;;
49502;SDS011;35409;48.776;9.204;2024-01-16T01:38:11;10.32;;;4.63;;
49502;SDS011;35409;48.776;9.204;2024-01-16T01:40:36;7.93;;;4.15;;
49502;SDS011;35409;48.776;9.204;2024-01-16T01:45:56;7.97;;;3.70;;
49502;SDS011;35409;48.776;9.204;2024-01-16T01:48:25;9.27;;;3.80;;
49502;SDS011;35409;48.776;9.204;2024-01-16T01:50:51;8.85;;;3.75;;
49502;SDS011;35409;48.776;9.204;2024-01-16T01:53:18;10.65;;;4.07;;
49502;SDS011;35409;48.776;9.204;2024-01-16T01:55:45;8.77;;;4.22;;
49502;SDS011;35409;48.776;9.204;2024-01-16T01:58:13;8.97;;;4.47;;
49502;SDS011;35409;48.776;9.204;2024-01-16T02:00:40;9.65;;;4.50;;
49502;SDS011;35409;48.776;9.204;2024-01-16T02:03:05;11.52;;;4.50;;
49502;SDS011;35409;48.776;9.204;2024-01-16T02:05:34;7.78;;;3.75;;
49502;SDS011;35409;48.776;9.204;2024-01-16T02:07:59;8.52;;;3.95;;
49502;SDS011;35409;48.776;9.204;2024-01-16T02:10:27;14.32;;;4.80;;
49502;SDS011;35409;48.776;9.204;2024-01-16T02:12:53;9.13;;;3.95;;
49502;SDS011;35409;48.776;9.204;2024-01-16T02:15:19;8.45;;;3.70;;
49502;SDS011;35409;48.776;9.204;2024-01-16T02:17:44;9.23;;;4.22;;
49502;SDS011;35409;48.776;9.204;2024-01-16T02:20:12;8.15;;;4.35;;
49502;SDS011;35409;48.776;9.204;2024-01-16T02:22:38;8.43;;;3.55;;
49502;SDS011;35409;48.776;9.204;2024-01-16T02:27:33;8.35;;;4.45;;
49502;SDS011;35409;48.776;9.204;2024-01-16T02:30:00;9.05;;;4.40;;
49502;SDS011;35409;48.776;9.204;2024-01-16T02:32:25;10.43;;;4.28;;
49502;SDS011;35409;48.776;9.204;2024-01-16T02:34:51;9.60;;;4.20;;
49502;SDS011;35409;48.776;9.204;2024-01-16T02:37:17;10.00;;;5.28;;
49502;SDS011;35409;48.776;9.204;2024-01-16T02:39:42;11.10;;;4.35;;
49502;SDS011;35409;48.776;9.204;2024-01-16T02:42:08;7.05;;;3.70;;
49502;SDS011;35409;48.776;9.204;2024-01-16T02:44:33;7.68;;;4.00;;
49502;SDS011;35409;48.776;9.204;2024-01-16T02:46:59;8.52;;;4.20;;
49502;SDS011;35409;48.776;9.204;2024-01-16T02:49:25;7.97;;;4.30;;
49502;SDS011;35409;48.776;9.204;2024-01-16T02:51:51;12.35;;;4.13;;
49502;SDS011;35409;48.776;9.204;2024-01-16T02:54:17;9.32;;;4.07;;
49502;SDS011;35409;48.776;9.204;2024-01-16T02:56:42;10.93;;;4.38;;
49502;SDS011;35409;48.776;9.204;2024-01-16T02:59:11;11.50;;;4.43;;
49502;SDS011;35409;48.776;9.204;2024-01-16T03:01:36;10.00;;;4.55;;
49502;SDS011;35409;48.776;9.204;2024-01-16T03:04:02;9.27;;;4.60;;
49502;SDS011;35409;48.776;9.204;2024-01-16T03:06:28;9.18;;;4.10;;
49502;SDS011;35409;48.776;9.204;2024-01-16T03:08:55;10.27;;;3.90;;
49502;SDS011;35409;48.776;9.204;2024-01-16T03:11:21;7.72;;;4.13;;
49502;SDS011;35409;48.776;9.204;2024-01-16T03:13:47;10.20;;;4.32;;
49502;SDS011;35409;48.776;9.204;2024-01-16T03:16:15;6.97;;;4.20;;
49502;SDS011;35409;48.776;9.204;2024-01-16T03:18:40;8.32;;;3.97;;
49502;SDS011;35409;48.776;9.204;2024-01-16T03:21:06;8.75;;;4.07;;
49502;SDS011;35409;48.776;9.204;2024-01-16T03:23:38;8.02;;;4.20;;
49502;SDS011;35409;48.776;9.204;2024-01-16T03:26:11;7.45;;;4.20;;
49502;SDS011;35409;48.776;9.204;2024-01-16T03:28:37;11.80;;;4.47;;
49502;SDS011;35409;48.776;9.204;2024-01-16T03:31:03;9.25;;;3.78;;
49502;SDS011;35409;48.776;9.204;2024-01-16T03:33:29;9.18;;;4.45;;
49502;SDS011;35409;48.776;9.204;2024-01-16T03:35:54;10.93;;;4.50;;
49502;SDS011;35409;48.776;9.204;2024-01-16T03:38:20;7.10;;;3.58;;
49502;SDS011;35409;48.776;9.204;2024-01-16T03:40:46;8.32;;;4.00;;
49502;SDS011;35409;48.776;9.204;2024-01-16T03:43:11;6.28;;;4.05;;
49502;SDS011;35409;48.776;9.204;2024-01-16T03:45:37;8.55;;;3.63;;
49502;SDS011;35409;48.776;9.204;2024-01-16T03:48:03;13.63;;;4.28;;
49502;SDS011;35409;48.776;9.204;2024-01-16T03:50:28;9.13;;;4.57;;
49502;SDS011;35409;48.776;9.204;2024-01-16T03:52:54;8.45;;;4.22;;
49502;SDS011;35409;48.776;9.204;2024-01-16T03:55:20;9.13;;;4.22;;
49502;SDS011;35409;48.776;9.204;2024-01-16T03:57:46;6.93;;;3.25;;
49502;SDS011;35409;48.776;9.204;2024-01-16T04:00:11;8.70;;;4.13;;
49502;SDS011;35409;48.776;9.204;2024-01-16T04:02:37;9.82;;;3.83;;
49502;SDS011;35409;48.776;9.204;2024-01-16T04:05:04;12.82;;;4.88;;
49502;SDS011;35409;48.776;9.204;2024-01-16T04:07:30;11.25;;;4.18;;
49502;SDS011;35409;48.776;9.204;2024-01-16T04:09:56;7.88;;;3.97;;
49502;SDS011;35409;48.776;9.204;2024-01-16T04:12:22;8.00;;;3.70;;
49502;SDS011;35409;48.776;9.204;2024-01-16T04:14:47;10.30;;;3.97;;
49502;SDS011;35409;48.776;9.204;2024-01-16T04:17:13;12.27;;;4.38;;
49502;SDS011;35409;48.776;9.204;2024-01-16T04:19:39;8.27;;;3.67;;
49502;SDS011;35409;48.776;9.204;2024-01-16T04:22:05;10.38;;;4.90;;
49502;SDS011;35409;48.776;9.204;2024-01-16T04:24:31;6.32;;;3.50;;
49502;SDS011;35409;48.776;9.204;2024-01-16T04:26:57;9.95;;;4.05;;
49502;SDS011;35409;48.776;9.204;2024-01-16T04:29:23;8.95;;;3.65;;
49502;SDS011;35409;48.776;9.204;2024-01-16T04:31:49;5.97;;;3.33;;
49502;SDS011;35409;48.776;9.204;2024-01-16T04:34:14;6.85;;;4.15;;
49502;SDS011;35409;48.776;9.204;2024-01-16T04:36:40;8.70;;;3.78;;
49502;SDS011;35409;48.776;9.204;2024-01-16T04:39:06;9.18;;;3.80;;
49502;SDS011;35409;48.776;9.204;2024-01-16T04:41:31;8.93;;;3.65;;
49502;SDS011;35409;48.776;9.204;2024-01-16T04:43:57;11.13;;;3.95;;
49502;SDS011;35409;48.776;9.204;2024-01-16T04:46:22;10.77;;;3.47;;
49502;SDS011;35409;48.776;9.204;2024-01-16T04:48:48;11.35;;;4.55;;
49502;SDS011;35409;48.776;9.204;2024-01-16T04:51:15;11.45;;;4.10;;
49502;SDS011;35409;48.776;9.204;2024-01-16T04:53:42;9.82;;;3.92;;
49502;SDS011;35409;48.776;9.204;2024-01-16T04:56:08;6.85;;;3.60;;
49502;SDS011;35409;48.776;9.204;2024-01-16T04:58:34;10.10;;;3.97;;
49502;SDS011;35409;48.776;9.204;2024-01-16T05:00:59;5.90;;;3.45;;
49502;SDS011;35409;48.776;9.204;2024-01-16T05:03:25;9.20;;;4.13;;
49502;SDS011;35409;48.776;9.204;2024-01-16T05:05:51;7.10;;;3.42;;
49502;SDS011;35409;48.776;9.204;2024-01-16T05:08:17;10.43;;;4.43;;
49502;SDS011;35409;48.776;9.204;2024-01-16T05:10:43;9.18;;;4.05;;
49502;SDS011;35409;48.776;9.204;2024-01-16T05:13:08;9.55;;;3.50;;
49502;SDS011;35409;48.776;9.204;2024-01-16T05:15:36;9.30;;;3.50;;
49502;SDS011;35409;48.776;9.204;2024-01-16T05:18:02;7.80;;;3.63;;
49502;SDS011;35409;48.776;9.204;2024-01-16T05:20:29;6.00;;;3.25;;
49502;SDS011;35409;48.776;9.204;2024-01-16T05:22:54;9.32;;;3.55;;
49502;SDS011;35409;48.776;9.204;2024-01-16T05:25:21;9.65;;;3.47;;
49502;SDS011;35409;48.776;9.204;2024-01-16T05:27:48;7.40;;;3.42;;
49502;SDS011;35409;48.776;9.204;2024-01-16T05:30:16;10.60;;;3.75;;
49502;SDS011;35409;48.776;9.204;2024-01-16T05:32:42;9.20;;;3.92;;
49502;SDS011;35409;48.776;9.204;2024-01-16T05:35:08;9.73;;;3.97;;
49502;SDS011;35409;48.776;9.204;2024-01-16T05:37:34;6.95;;;3.85;;
49502;SDS011;35409;48.776;9.204;2024-01-16T05:40:00;8.43;;;3.80;;
49502;SDS011;35409;48.776;9.204;2024-01-16T05:42:28;9.75;;;3.05;;
49502;SDS011;35409;48.776;9.204;2024-01-16T05:44:55;10.80;;;3.63;;
49502;SDS011;35409;48.776;9.204;2024-01-16T05:47:20;8.05;;;3.78;;
49502;SDS011;35409;48.776;9.204;2024-01-16T05:49:49;9.05;;;4.28;;
49502;SDS011;35409;48.776;9.204;2024-01-16T05:52:15;5.28;;;3.38;;
49502;SDS011;35409;48.776;9.204;2024-01-16T05:54:42;7.97;;;3.63;;
49502;SDS011;35409;48.776;9.204;2024-01-16T05:57:08;8.45;;;3.60;;
49502;SDS011;35409;48.776;9.204;2024-01-16T05:59:33;7.47;;;3.25;;
49502;SDS011;35409;48.776;9.204;2024-01-16T06:01:59;7.68;;;3.67;;
49502;SDS011;35409;48.776;9.204;2024-01-16T06:04:25;9.45;;;3.88;;
49502;SDS011;35409;48.776;9.204;2024-01-16T06:06:50;9.40;;;3.70;;
49502;SDS011;35409;48.776;9.204;2024-01-16T06:09:16;7.47;;;3.70;;
49502;SDS011;35409;48.776;9.204;2024-01-16T06:11:42;9.05;;;3.75;;
49502;SDS011;35409;48.776;9.204;2024-01-16T06:14:07;7.10;;;3.40;;
49502;SDS011;35409;48.776;9.204;2024-01-16T06:16:34;7.70;;;3.65;;
49502;SDS011;35409;48.776;9.204;2024-01-16T06:19:03;7.78;;;3.20;;
49502;SDS011;35409;48.776;9.204;2024-01-16T06:21:30;8.73;;;3.88;;
49502;SDS011;35409;48.776;9.204;2024-01-16T06:23:57;8.30;;;3.90;;
49502;SDS011;35409;48.776;9.204;2024-01-16T06:26:23;8.75;;;4.22;;
49502;SDS011;35409;48.776;9.204;2024-01-16T06:28:49;10.10;;;3.72;;
49502;SDS011;35409;48.776;9.204;2024-01-16T06:31:16;10.57;;;3.25;;
49502;SDS011;35409;48.776;9.204;2024-01-16T06:33:41;10.80;;;3.35;;
49502;SDS011;35409;48.776;9.204;2024-01-16T06:36:07;7.60;;;3.55;;
49502;SDS011;35409;48.776;9.204;2024-01-16T06:38:33;8.73;;;3.10;;
49502;SDS011;35409;48.776;9.204;2024-01-16T06:40:58;7.75;;;3.53;;
49502;SDS011;35409;48.776;9.204;2024-01-16T06:43:26;8.23;;;3.42;;
49502;SDS011;35409;48.776;9.204;2024-01-16T06:45:52;7.97;;;4.35;;
49502;SDS011;35409;48.776;9.204;2024-01-16T06:48:18;7.40;;;3.22;;
49502;SDS011;35409;48.776;9.204;2024-01-16T06:50:44;5.00;;;2.80;;
49502;SDS011;35409;48.776;9.204;2024-01-16T06:53:10;8.38;;;3.33;;
49502;SDS011;35409;48.776;9.204;2024-01-16T06:55:38;7.95;;;2.72;;
49502;SDS011;35409;48.776;9.204;2024-01-16T06:58:04;7.90;;;2.92;;
49502;SDS011;35409;48.776;9.204;2024-01-16T07:00:30;10.07;;;3.13;;
49502;SDS011;35409;48.776;9.204;2024-01-16T07:02:57;6.85;;;2.83;;
49502;SDS011;35409;48.776;9.204;2024-01-16T07:05:23;9.98;;;3.67;;
49502;SDS011;35409;48.776;9.204;2024-01-16T07:07:49;6.28;;;2.95;;
49502;SDS011;35409;48.776;9.204;2024-01-16T07:10:15;6.72;;;3.10;;
49502;SDS011;35409;48.776;9.204;2024-01-16T07:12:47;8.10;;;3.05;;
49502;SDS011;35409;48.776;9.204;2024-01-16T07:15:14;12.05;;;2.70;;
49502;SDS011;35409;48.776;9.204;2024-01-16T07:17:40;6.72;;;2.90;;
49502;SDS011;35409;48.776;9.204;2024-01-16T07:20:06;7.35;;;2.30;;
49502;SDS011;35409;48.776;9.204;2024-01-16T07:22:32;10.25;;;2.70;;
49502;SDS011;35409;48.776;9.204;2024-01-16T07:24:59;6.55;;;3.08;;
49502;SDS011;35409;48.776;9.204;2024-01-16T07:27:25;7.32;;;3.10;;
49502;SDS011;35409;48.776;9.204;2024-01-16T07:29:51;11.55;;;3.08;;
49502;SDS011;35409;48.776;9.204;2024-01-16T07:32:16;8.88;;;2.70;;
49502;SDS011;35409;48.776;9.204;2024-01-16T07:34:43;6.00;;;2.80;;
49502;SDS011;35409;48.776;9.204;2024-01-16T07:37:09;7.10;;;2.35;;
49502;SDS011;35409;48.776;9.204;2024-01-16T07:39:37;6.45;;;3.00;;
49502;SDS011;35409;48.776;9.204;2024-01-16T07:42:04;17.17;;;3.03;;
49502;SDS011;35409;48.776;9.204;2024-01-16T07:44:30;6.28;;;2.50;;
49502;SDS011;35409;48.776;9.204;2024-01-16T07:46:56;8.25;;;2.35;;
49502;SDS011;35409;48.776;9.204;2024-01-16T07:49:21;7.55;;;2.35;;
49502;SDS011;35409;48.776;9.204;2024-01-16T07:51:48;5.75;;;2.40;;
49502;SDS011;35409;48.776;9.204;2024-01-16T07:54:15;14.13;;;2.83;;
49502;SDS011;35409;48.776;9.204;2024-01-16T07:56:40;5.40;;;2.50;;
49502;SDS011;35409;48.776;9.204;2024-01-16T07:59:08;5.32;;;2.78;;
49502;SDS011;35409;48.776;9.204;2024-01-16T08:01:40;6.75;;;2.53;;
49502;SDS011;35409;48.776;9.204;2024-01-16T08:04:05;7.22;;;3.50;;
49502;SDS011;35409;48.776;9.204;2024-01-16T08:06:31;8.18;;;2.60;;
49502;SDS011;35409;48.776;9.204;2024-01-16T08:08:58;4.68;;;2.40;;
49502;SDS011;35409;48.776;9.204;2024-01-16T08:11:23;6.65;;;3.03;;
49502;SDS011;35409;48.776;9.204;2024-01-16T08:13:49;4.32;;;2.40;;
49502;SDS011;35409;48.776;9.204;2024-01-16T08:16:15;9.13;;;2.75;;
49502;SDS011;35409;48.776;9.204;2024-01-16T08:18:41;5.47;;;2.45;;
49502;SDS011;35409;48.776;9.204;2024-01-16T08:21:08;4.70;;;2.67;;
49502;SDS011;35409;48.776;9.204;2024-01-16T08:23:34;5.07;;;2.00;;
49502;SDS011;35409;48.776;9.204;2024-01-16T08:26:00;5.80;;;2.25;;
49502;SDS011;35409;48.776;9.204;2024-01-16T08:28:26;7.70;;;2.30;;
49502;SDS011;35409;48.776;9.204;2024-01-16T08:30:52;7.03;;;2.58;;
49502;SDS011;35409;48.776;9.204;2024-01-16T08:33:17;6.68;;;3.03;;
49502;SDS011;35409;48.776;9.204;2024-01-16T08:35:44;7.25;;;2.80;;
49502;SDS011;35409;48.776;9.204;2024-01-16T08:38:10;5.18;;;2.75;;
49502;SDS011;35409;48.776;9.204;2024-01-16T08:40:36;17.10;;;2.90;;
49502;SDS011;35409;48.776;9.204;2024-01-16T08:43:01;6.05;;;2.55;;
49502;SDS011;35409;48.776;9.204;2024-01-16T08:45:28;7.90;;;2.92;;
49502;SDS011;35409;48.776;9.204;2024-01-16T08:47:54;7.38;;;2.60;;
49502;SDS011;35409;48.776;9.204;2024-01-16T08:50:20;6.93;;;2.50;;
49502;SDS011;35409;48.776;9.204;2024-01-16T08:52:45;7.45;;;3.10;;
49502;SDS011;35409;48.776;9.204;2024-01-16T08:55:11;7.32;;;2.63;;
49502;SDS011;35409;48.776;9.204;2024-01-16T08:57:37;10.32;;;3.10;;
49502;SDS011;35409;48.776;9.204;2024-01-16T09:00:04;4.70;;;2.65;;
49502;SDS011;35409;48.776;9.204;2024-01-16T09:02:30;7.10;;;2.58;;
49502;SDS011;35409;48.776;9.204;2024-01-16T09:04:56;6.72;;;2.83;;
49502;SDS011;35409;48.776;9.204;2024-01-16T09:07:23;4.43;;;1.98;;
49502;SDS011;35409;48.776;9.204;2024-01-16T09:09:49;4.72;;;2.38;;
49502;SDS011;35409;48.776;9.204;2024-01-16T09:12:15;5.10;;;2.38;;
49502;SDS011;35409;48.776;9.204;2024-01-16T09:14:44;6.40;;;2.63;;
49502;SDS011;35409;48.776;9.204;2024-01-16T09:17:09;8.40;;;2.35;;
49502;SDS011;35409;48.776;9.204;2024-01-16T09:19:35;5.85;;;2.10;;
49502;SDS011;35409;48.776;9.204;2024-01-16T09:22:01;9.18;;;2.78;;
49502;SDS011;35409;48.776;9.204;2024-01-16T09:24:28;8.18;;;2.70;;
49502;SDS011;35409;48.776;9.204;2024-01-16T09:26:54;4.25;;;2.35;;
49502;SDS011;35409;48.776;9.204;2024-01-16T09:29:19;9.07;;;2.45;;
49502;SDS011;35409;48.776;9.204;2024-01-16T09:31:47;9.80;;;2.10;;
49502;SDS011;35409;48.776;9.204;2024-01-16T09:34:13;6.72;;;2.15;;
49502;SDS011;35409;48.776;9.204;2024-01-16T09:36:39;5.72;;;2.45;;
49502;SDS011;35409;48.776;9.204;2024-01-16T09:39:06;7.68;;;2.63;;
49502;SDS011;35409;48.776;9.204;2024-01-16T09:41:38;7.07;;;2.42;;
49502;SDS011;35409;48.776;9.204;2024-01-16T09:44:04;5.38;;;2.75;;
49502;SDS011;35409;48.776;9.204;2024-01-16T09:46:32;7.22;;;2.60;;
49502;SDS011;35409;48.776;9.204;2024-01-16T09:48:59;9.95;;;2.72;;
49502;SDS011;35409;48.776;9.204;2024-01-16T09:51:27;6.20;;;2.25;;
49502;SDS011;35409;48.776;9.204;2024-01-16T09:53:53;6.28;;;2.65;;
49502;SDS011;35409;48.776;9.204;2024-01-16T09:56:21;10.18;;;3.00;;
49502;SDS011;35409;48.776;9.204;2024-01-16T09:58:54;9.25;;;3.28;;
49502;SDS011;35409;48.776;9.204;2024-01-16T10:01:23;11.65;;;2.90;;
49502;SDS011;35409;48.776;9.204;2024-01-16T10:03:58;5.03;;;2.50;;
49502;SDS011;35409;48.776;9.204;2024-01-16T10:06:26;5.45;;;2.58;;
49502;SDS011;35409;48.776;9.204;2024-01-16T10:08:53;4.88;;;2.63;;
49502;SDS011;35409;48.776;9.204;2024-01-16T10:11:19;9.98;;;2.95;;
49502;SDS011;35409;48.776;9.204;2024-01-16T10:13:45;7.45;;;2.78;;
49502;SDS011;35409;48.776;9.204;2024-01-16T10:16:11;7.03;;;3.40;;
49502;SDS011;35409;48.776;9.204;2024-01-16T10:18:37;8.05;;;3.22;;
49502;SDS011;35409;48.776;9.204;2024-01-16T10:21:04;8.98;;;2.83;;
49502;SDS011;35409;48.776;9.204;2024-01-16T10:23:30;8.23;;;2.58;;
49502;SDS011;35409;48.776;9.204;2024-01-16T10:28:46;7.97;;;2.67;;
49502;SDS011;35409;48.776;9.204;2024-01-16T10:31:12;6.85;;;2.20;;
49502;SDS011;35409;48.776;9.204;2024-01-16T10:33:41;7.95;;;2.45;;
49502;SDS011;35409;48.776;9.204;2024-01-16T10:36:08;6.35;;;2.47;;
49502;SDS011;35409;48.776;9.204;2024-01-16T10:38:35;5.63;;;2.70;;
49502;SDS011;35409;48.776;9.204;2024-01-16T10:41:05;7.43;;;2.30;;
49502;SDS011;35409;48.776;9.204;2024-01-16T10:44:03;12.82;;;3.53;;
49502;SDS011;35409;48.776;9.204;2024-01-16T10:46:32;9.15;;;3.40;;
49502;SDS011;35409;48.776;9.204;2024-01-16T10:48:59;7.13;;;3.58;;
49502;SDS011;35409;48.776;9.204;2024-01-16T10:51:26;13.57;;;4.53;;
49502;SDS011;35409;48.776;9.204;2024-01-16T10:54:00;12.90;;;3.60;;
49502;SDS011;35409;48.776;9.204;2024-01-16T10:56:30;11.95;;;3.63;;
49502;SDS011;35409;48.776;9.204;2024-01-16T11:01:58;11.02;;;3.40;;
49502;SDS011;35409;48.776;9.204;2024-01-16T11:04:28;9.07;;;3.83;;
49502;SDS011;35409;48.776;9.204;2024-01-16T11:06:55;11.40;;;3.67;;
49502;SDS011;35409;48.776;9.204;2024-01-16T11:09:21;8.05;;;3.90;;
49502;SDS011;35409;48.776;9.204;2024-01-16T11:11:47;15.00;;;5.32;;
49502;SDS011;35409;48.776;9.204;2024-01-16T11:14:16;18.02;;;4.50;;
49502;SDS011;35409;48.776;9.204;2024-01-16T11:16:42;7.78;;;3.90;;
49502;SDS011;35409;48.776;9.204;2024-01-16T11:19:12;7.47;;;3.55;;
49502;SDS011;35409;48.776;9.204;2024-01-16T11:21:38;7.60;;;3.75;;
49502;SDS011;35409;48.776;9.204;2024-01-16T11:24:06;7.38;;;3.92;;
49502;SDS011;35409;48.776;9.204;2024-01-16T11:26:32;15.23;;;3.63;;
49502;SDS011;35409;48.776;9.204;2024-01-16T11:34:22;6.50;;;2.88;;
49502;SDS011;35409;48.776;9.204;2024-01-16T11:37:06;9.48;;;3.90;;
49502;SDS011;35409;48.776;9.204;2024-01-16T11:39:33;12.50;;;3.50;;
49502;SDS011;35409;48.776;9.204;2024-01-16T11:41:59;12.93;;;3.47;;
49502;SDS011;35409;48.776;9.204;2024-01-16T11:44:41;7.25;;;3.38;;
49502;SDS011;35409;48.776;9.204;2024-01-16T11:47:18;11.75;;;4.05;;
49502;SDS011;35409;48.776;9.204;2024-01-16T11:49:49;7.47;;;3.17;;
49502;SDS011;35409;48.776;9.204;2024-01-16T11:53:02;7.20;;;3.45;;
49502;SDS011;35409;48.776;9.204;2024-01-16T12:01:02;7.82;;;2.80;;
49502;SDS011;35409;48.776;9.204;2024-01-16T12:03:30;8.73;;;2.88;;
49502;SDS011;35409;48.776;9.204;2024-01-16T12:05:59;4.40;;;2.00;;
49502;SDS011;35409;48.776;9.204;2024-01-16T12:08:26;6.10;;;1.98;;
49502;SDS011;35409;48.776;9.204;2024-01-16T12:10:53;5.93;;;1.75;;
49502;SDS011;35409;48.776;9.204;2024-01-16T12:13:19;5.25;;;1.33;;
49502;SDS011;35409;48.776;9.204;2024-01-16T12:15:44;7.28;;;2.08;;
49502;SDS011;35409;48.776;9.204;2024-01-16T12:18:17;14.90;;;2.10;;
49502;SDS011;35409;48.776;9.204;2024-01-16T12:20:43;8.93;;;1.80;;
49502;SDS011;35409;48.776;9.204;2024-01-16T12:23:11;3.67;;;1.23;;
49502;SDS011;35409;48.776;9.204;2024-01-16T12:25:59;3.70;;;1.73;;
49502;SDS011;35409;48.776;9.204;2024-01-16T12:28:28;6.93;;;1.90;;
49502;SDS011;35409;48.776;9.204;2024-01-16T12:30:54;3.30;;;1.17;;
49502;SDS011;35409;48.776;9.204;2024-01-16T12:33:22;19.50;;;2.17;;
49502;SDS011;35409;48.776;9.204;2024-01-16T12:35:48;7.70;;;1.92;;
49502;SDS011;35409;48.776;9.204;2024-01-16T12:38:14;2.50;;;1.13;;
49502;SDS011;35409;48.776;9.204;2024-01-16T12:40:42;7.22;;;1.58;;
49502;SDS011;35409;48.776;9.204;2024-01-16T12:43:15;10.77;;;2.25;;
49502;SDS011;35409;48.776;9.204;2024-01-16T12:45:43;5.68;;;1.48;;
49502;SDS011;35409;48.776;9.204;2024-01-16T12:48:11;10.23;;;2.00;;
49502;SDS011;35409;48.776;9.204;2024-01-16T12:50:37;9.05;;;1.60;;
49502;SDS011;35409;48.776;9.204;2024-01-16T12:53:09;6.43;;;1.70;;
49502;SDS011;35409;48.776;9.204;2024-01-16T12:55:37;4.07;;;1.75;;
49502;SDS011;35409;48.776;9.204;2024-01-16T12:58:16;4.40;;;1.70;;
49502;SDS011;35409;48.776;9.204;2024-01-16T13:00:49;3.83;;;1.35;;
49502;SDS011;35409;48.776;9.204;2024-01-16T13:06:02;6.13;;;1.48;;
49502;SDS011;35409;48.776;9.204;2024-01-16T13:08:29;3.53;;;1.38;;
49502;SDS011;35409;48.776;9.204;2024-01-16T13:11:08;6.57;;;1.75;;
49502;SDS011;35409;48.776;9.204;2024-01-16T13:13:36;8.85;;;1.92;;
49502;SDS011;35409;48.776;9.204;2024-01-16T13:16:03;4.45;;;1.50;;
49502;SDS011;35409;48.776;9.204;2024-01-16T13:18:32;4.60;;;1.70;;
49502;SDS011;35409;48.776;9.204;2024-01-16T13:20:58;15.18;;;2.50;;
49502;SDS011;35409;48.776;9.204;2024-01-16T13:23:25;10.75;;;1.88;;
49502;SDS011;35409;48.776;9.204;2024-01-16T13:25:52;5.32;;;1.83;;
49502;SDS011;35409;48.776;9.204;2024-01-16T13:28:20;4.70;;;1.85;;
49502;SDS011;35409;48.776;9.204;2024-01-16T13:30:48;7.00;;;1.70;;
49502;SDS011;35409;48.776;9.204;2024-01-16T13:33:15;5.85;;;1.55;;
49502;SDS011;35409;48.776;9.204;2024-01-16T13:38:11;2.90;;;1.40;;
49502;SDS011;35409;48.776;9.204;2024-01-16T13:40:41;10.13;;;1.90;;
49502;SDS011;35409;48.776;9.204;2024-01-16T13:43:09;3.55;;;1.70;;
49502;SDS011;35409;48.776;9.204;2024-01-16T13:45:36;5.60;;;1.70;;
49502;SDS011;35409;48.776;9.204;2024-01-16T13:48:03;4.43;;;1.45;;
49502;SDS011;35409;48.776;9.204;2024-01-16T13:50:31;4.38;;;2.20;;
49502;SDS011;35409;48.776;9.204;2024-01-16T13:52:58;4.30;;;1.80;;
49502;SDS011;35409;48.776;9.204;2024-01-16T13:55:24;3.83;;;1.50;;
49502;SDS011;35409;48.776;9.204;2024-01-16T13:57:50;8.18;;;2.40;;
49502;SDS011;35409;48.776;9.204;2024-01-16T14:00:17;5.88;;;1.85;;
49502;SDS011;35409;48.776;9.204;2024-01-16T14:02:44;6.72;;;2.00;;
49502;SDS011;35409;48.776;9.204;2024-01-16T14:05:12;4.38;;;1.80;;
49502;SDS011;35409;48.776;9.204;2024-01-16T14:07:43;9.55;;;2.80;;
49502;SDS011;35409;48.776;9.204;2024-01-16T14:10:16;5.30;;;1.85;;
49502;SDS011;35409;48.776;9.204;2024-01-16T14:12:45;5.95;;;2.10;;
49502;SDS011;35409;48.776;9.204;2024-01-16T14:15:12;8.48;;;1.85;;
49502;SDS011;35409;48.776;9.204;2024-01-16T14:20:12;4.93;;;1.70;;
49502;SDS011;35409;48.776;9.204;2024-01-16T14:22:39;6.38;;;2.00;;
49502;SDS011;35409;48.776;9.204;2024-01-16T14:25:14;6.82;;;1.90;;
49502;SDS011;35409;48.776;9.204;2024-01-16T14:27:44;7.32;;;2.38;;
49502;SDS011;35409;48.776;9.204;2024-01-16T14:30:20;8.88;;;2.30;;
49502;SDS011;35409;48.776;9.204;2024-01-16T14:32:45;7.40;;;2.50;;
49502;SDS011;35409;48.776;9.204;2024-01-16T14:35:12;5.80;;;2.15;;
49502;SDS011;35409;48.776;9.204;2024-01-16T14:37:41;5.40;;;2.15;;
49502;SDS011;35409;48.776;9.204;2024-01-16T14:40:07;4.35;;;2.10;;
49502;SDS011;35409;48.776;9.204;2024-01-16T14:42:38;3.35;;;1.83;;
49502;SDS011;35409;48.776;9.204;2024-01-16T14:45:05;8.65;;;2.38;;
49502;SDS011;35409;48.776;9.204;2024-01-16T14:47:31;2.47;;;1.33;;
49502;SDS011;35409;48.776;9.204;2024-01-16T14:49:57;9.73;;;2.50;;
49502;SDS011;35409;48.776;9.204;2024-01-16T14:52:24;6.35;;;1.95;;
49502;SDS011;35409;48.776;9.204;2024-01-16T14:54:50;4.30;;;1.73;;
49502;SDS011;35409;48.776;9.204;2024-01-16T14:57:18;4.50;;;1.80;;
49502;SDS011;35409;48.776;9.204;2024-01-16T14:59:43;8.52;;;3.10;;
49502;SDS011;35409;48.776;9.204;2024-01-16T15:02:10;12.65;;;2.55;;
49502;SDS011;35409;48.776;9.204;2024-01-16T15:04:42;9.38;;;2.33;;
49502;SDS011;35409;48.776;9.204;2024-01-16T15:07:08;4.82;;;2.75;;
49502;SDS011;35409;48.776;9.204;2024-01-16T15:09:34;9.23;;;2.40;;
49502;SDS011;35409;48.776;9.204;2024-01-16T15:12:03;5.57;;;2.83;;
49502;SDS011;35409;48.776;9.204;2024-01-16T15:14:32;10.00;;;2.75;;